Time,TemperatureF,DewpointF,PressureIn,WindDirection,WindDirectionDegrees,WindSpeedMPH,WindSpeedGustMPH,Humidity,HourlyPrecipIn,Conditions,Clouds,dailyrainin,SolarRadiationWatts/m^2,SoftwareType,DateUTC
2013-03-07 08:15:00,61.9,57.7,29.79,East,90,8.0,8.0,86,0.00,,,0.00,188,Wunderground v.1.15,2013-03-07 14:15:00,
2013-03-07 08:20:00,62.2,58.0,29.80,WSW,242,4.0,8.0,86,0.00,,,0.00,390,Wunderground v.1.15,2013-03-07 14:20:00,
2013-03-07 08:25:00,62.7,58.1,29.79,West,261,5.0,5.0,85,0.00,,,0.00,334,Wunderground v.1.15,2013-03-07 14:25:00,
2013-03-07 08:30:00,63.5,58.2,29.78,ENE,64,7.0,7.0,83,0.00,,,0.00,679,Wunderground v.1.15,2013-03-07 14:30:00,
2013-03-07 08:35:00,64.4,58.1,29.79,NE,44,6.0,6.0,80,0.00,,,0.00,657,Wunderground v.1.15,2013-03-07 14:35:00,
2013-03-07 08:40:00,65.3,58.6,29.80,WNW,291,5.0,6.0,79,0.00,,,0.00,851,Wunderground v.1.15,2013-03-07 14:40:00,
2013-03-07 08:45:00,65.1,58.8,29.80,West,281,6.0,6.0,80,0.00,,,0.00,512,Wunderground v.1.15,2013-03-07 14:45:00,
2013-03-07 08:50:00,65.3,58.3,29.81,NNW,338,7.0,7.0,78,0.00,,,0.00,315,Wunderground v.1.15,2013-03-07 14:50:00,
2013-03-07 09:00:00,64.9,58.6,29.80,NNW,342,7.0,9.0,80,0.00,,,0.00,454,Wunderground v.1.15,2013-03-07 15:00:00,
2013-03-07 09:10:00,65.5,58.8,29.81,ESE,118,4.0,4.0,79,0.00,,,0.00,464,Wunderground v.1.15,2013-03-07 15:10:00,
2013-03-07 09:15:00,65.6,58.6,29.81,NNE,18,5.0,5.0,78,0.00,,,0.00,403,Wunderground v.1.15,2013-03-07 15:15:00,
2013-03-07 09:20:00,65.7,59.0,29.80,NE,36,7.0,43.0,79,0.00,,,0.00,406,Wunderground v.1.15,2013-03-07 15:20:00,
2013-03-07 09:25:00,66.1,58.3,29.80,West,279,6.0,43.0,76,0.00,,,0.00,612,Wunderground v.1.15,2013-03-07 15:25:00,
2013-03-07 09:29:00,66.4,59.0,29.79,NW,313,5.0,5.0,77,0.00,,,0.00,707,Wunderground v.1.15,2013-03-07 15:29:00,
2013-03-07 09:35:00,66.6,58.8,29.79,West,262,5.0,16.0,76,0.00,,,0.00,554,Wunderground v.1.15,2013-03-07 15:35:00,
2013-03-07 09:40:00,66.4,58.6,29.80,NE,50,6.0,43.0,76,0.00,,,0.00,577,Wunderground v.1.15,2013-03-07 15:40:00,
2013-03-07 09:44:00,66.3,58.5,29.80,ENE,69,7.0,43.0,76,0.00,,,0.00,638,Wunderground v.1.15,2013-03-07 15:44:00,
2013-03-07 09:50:00,66.4,58.6,29.79,NW,308,9.0,9.0,76,0.00,,,0.00,717,Wunderground v.1.15,2013-03-07 15:50:00,
2013-03-07 09:55:00,66.6,59.2,29.79,NW,324,8.0,43.0,77,0.00,,,0.00,536,Wunderground v.1.15,2013-03-07 15:55:00,
2013-03-07 10:00:00,66.6,59.2,29.79,ENE,75,4.0,4.0,77,0.00,,,0.00,424,Wunderground v.1.15,2013-03-07 16:00:00,
2013-03-07 10:05:00,66.6,59.2,29.79,NE,51,3.0,43.0,77,0.00,,,0.00,320,Wunderground v.1.15,2013-03-07 16:05:00,
2013-03-07 10:10:00,66.1,59.0,29.80,SSE,156,4.0,4.0,78,0.00,,,0.00,241,Wunderground v.1.15,2013-03-07 16:10:00,
2013-03-07 10:15:00,66.0,58.9,29.79,North,355,4.0,16.0,78,0.00,,,0.00,367,Wunderground v.1.15,2013-03-07 16:15:00,
2013-03-07 10:20:00,65.4,59.1,29.79,SW,231,6.0,43.0,80,0.00,,,0.00,348,Wunderground v.1.15,2013-03-07 16:20:00,
2013-03-07 10:25:00,65.3,58.6,29.80,WNW,294,5.0,43.0,79,0.00,,,0.00,327,Wunderground v.1.15,2013-03-07 16:25:00,
2013-03-07 10:30:00,65.2,58.9,29.79,SW,225,4.0,43.0,80,0.00,,,0.00,299,Wunderground v.1.15,2013-03-07 16:30:00,
2013-03-07 10:35:00,64.6,58.6,29.79,NNE,23,7.0,43.0,81,0.00,,,0.00,248,Wunderground v.1.15,2013-03-07 16:35:00,
2013-03-07 10:40:00,63.8,58.5,29.80,NNE,16,11.0,43.0,83,0.00,,,0.00,244,Wunderground v.1.15,2013-03-07 16:40:00,
2013-03-07 10:45:00,63.4,58.8,29.80,North,355,11.0,43.0,85,0.00,,,0.00,330,Wunderground v.1.15,2013-03-07 16:45:00,
2013-03-07 10:50:00,63.3,58.7,29.80,NE,46,8.0,8.0,85,0.00,,,0.00,223,Wunderground v.1.15,2013-03-07 16:50:00,
2013-03-07 10:55:00,63.3,59.0,29.79,NNE,25,5.0,43.0,86,0.00,,,0.00,229,Wunderground v.1.15,2013-03-07 16:55:00,
2013-03-07 11:00:00,63.0,58.7,29.80,ENE,71,6.0,6.0,86,0.00,,,0.00,271,Wunderground v.1.15,2013-03-07 17:00:00,
2013-03-07 11:05:00,62.8,58.5,29.78,West,270,7.0,7.0,86,0.00,,,0.00,362,Wunderground v.1.15,2013-03-07 17:05:00,
2013-03-07 11:10:00,62.9,58.6,29.78,WNW,288,6.0,6.0,86,0.00,,,0.00,438,Wunderground v.1.15,2013-03-07 17:10:00,
2013-03-07 11:15:00,63.1,58.5,29.78,North,9,4.0,23.0,85,0.00,,,0.00,304,Wunderground v.1.15,2013-03-07 17:15:00,
2013-03-07 11:20:00,62.9,58.6,29.78,NE,46,8.0,8.0,86,0.00,,,0.00,330,Wunderground v.1.15,2013-03-07 17:20:00,
2013-03-07 11:25:00,63.0,58.4,29.78,WNW,291,7.0,43.0,85,0.00,,,0.00,325,Wunderground v.1.15,2013-03-07 17:25:00,
2013-03-07 11:30:00,63.4,58.5,29.77,SSW,203,5.0,5.0,84,0.00,,,0.00,373,Wunderground v.1.15,2013-03-07 17:30:00,
2013-03-07 11:35:00,64.0,58.7,29.77,NW,309,5.0,43.0,83,0.00,,,0.00,468,Wunderground v.1.15,2013-03-07 17:35:00,
2013-03-07 11:40:00,64.1,59.2,29.78,NE,36,6.0,6.0,84,0.00,,,0.00,589,Wunderground v.1.15,2013-03-07 17:40:00,
2013-03-07 11:45:00,64.0,58.4,29.77,NW,326,9.0,9.0,82,0.00,,,0.00,763,Wunderground v.1.15,2013-03-07 17:45:00,
2013-03-07 11:50:00,64.4,58.4,29.77,WSW,242,8.0,8.0,81,0.00,,,0.00,475,Wunderground v.1.15,2013-03-07 17:50:00,
2013-03-07 11:55:00,64.8,59.2,29.78,North,355,5.0,43.0,82,0.00,,,0.00,508,Wunderground v.1.15,2013-03-07 17:55:00,
2013-03-07 12:00:00,64.9,59.3,29.78,NNW,331,5.0,5.0,82,0.00,,,0.00,415,Wunderground v.1.15,2013-03-07 18:00:00,
2013-03-07 12:05:00,65.2,59.6,29.78,West,271,4.0,43.0,82,0.00,,,0.00,322,Wunderground v.1.15,2013-03-07 18:05:00,
2013-03-07 12:10:00,65.4,59.4,29.77,SE,126,2.0,43.0,81,0.00,,,0.00,262,Wunderground v.1.15,2013-03-07 18:10:00,
2013-03-07 12:15:00,65.1,59.5,29.77,West,279,3.0,43.0,82,0.00,,,0.00,197,Wunderground v.1.15,2013-03-07 18:15:00,
2013-03-07 12:20:00,64.5,59.2,29.77,North,355,3.0,43.0,83,0.00,,,0.00,229,Wunderground v.1.15,2013-03-07 18:20:00,
2013-03-07 12:25:00,63.7,59.1,29.76,SE,128,5.0,43.0,85,0.00,,,0.00,221,Wunderground v.1.15,2013-03-07 18:25:00,
2013-03-07 12:30:00,63.0,59.1,29.77,North,9,7.0,43.0,87,0.00,,,0.00,193,Wunderground v.1.15,2013-03-07 18:30:00,
2013-03-07 12:35:00,62.2,58.9,29.78,NNE,33,9.0,43.0,89,0.00,,,0.00,195,Wunderground v.1.15,2013-03-07 18:35:00,
2013-03-07 12:44:00,61.2,58.2,29.78,NNE,15,9.0,43.0,90,0.00,,,0.00,174,Wunderground v.1.15,2013-03-07 18:44:00,
2013-03-07 12:50:00,61.1,58.1,29.78,ESE,106,9.0,9.0,90,0.00,,,0.00,165,Wunderground v.1.15,2013-03-07 18:50:00,
2013-03-07 12:55:00,61.1,58.1,29.78,NNE,28,8.0,43.0,90,0.00,,,0.00,128,Wunderground v.1.15,2013-03-07 18:55:00,
2013-03-07 13:00:00,61.0,58.4,29.77,NNW,346,7.0,43.0,91,0.00,,,0.00,128,Wunderground v.1.15,2013-03-07 19:00:00,
2013-03-07 13:05:00,61.0,58.4,29.77,West,277,5.0,43.0,91,0.00,,,0.00,167,Wunderground v.1.15,2013-03-07 19:05:00,
2013-03-07 13:15:00,60.8,58.2,29.77,ESE,121,7.0,43.0,91,0.00,,,0.00,179,Wunderground v.1.15,2013-03-07 19:15:00,
2013-03-07 13:20:00,60.8,58.2,29.76,NW,304,7.0,7.0,91,0.00,,,0.00,200,Wunderground v.1.15,2013-03-07 19:20:00,
2013-03-07 13:25:00,60.8,58.2,29.76,North,349,4.0,43.0,91,0.00,,,0.00,137,Wunderground v.1.15,2013-03-07 19:25:00,
2013-03-07 13:30:00,60.7,58.1,29.76,NE,56,5.0,43.0,91,0.00,,,0.00,132,Wunderground v.1.15,2013-03-07 19:30:00,
2013-03-07 13:35:00,60.5,57.9,29.76,North,355,7.0,43.0,91,0.00,,,0.00,97,Wunderground v.1.15,2013-03-07 19:35:00,
2013-03-07 13:40:00,60.3,58.0,29.75,North,360,7.0,43.0,92,0.00,,,0.01,109,Wunderground v.1.15,2013-03-07 19:40:00,
2013-03-07 13:45:00,60.2,57.9,29.76,NNW,346,7.0,43.0,92,0.00,,,0.01,128,Wunderground v.1.15,2013-03-07 19:45:00,
2013-03-07 13:50:00,60.2,58.2,29.76,NNE,12,7.0,7.0,93,0.00,,,0.01,156,Wunderground v.1.15,2013-03-07 19:50:00,
2013-03-07 13:55:00,60.3,58.0,29.75,NNW,346,7.0,12.0,92,0.00,,,0.01,156,Wunderground v.1.15,2013-03-07 19:55:00,
2013-03-07 14:00:00,60.4,58.1,29.75,ENE,66,8.0,8.0,92,0.00,,,0.01,125,Wunderground v.1.15,2013-03-07 20:00:00,
2013-03-07 14:05:00,60.4,58.1,29.75,North,355,7.0,12.0,92,0.00,,,0.01,91,Wunderground v.1.15,2013-03-07 20:05:00,
2013-03-07 14:09:00,60.3,58.0,29.75,SE,126,7.0,7.0,92,0.00,,,0.01,81,Wunderground v.1.15,2013-03-07 20:09:00,
2013-03-07 14:15:00,60.4,58.1,29.75,NNE,27,5.0,9.0,92,0.00,,,0.01,81,Wunderground v.1.15,2013-03-07 20:15:00,
2013-03-07 14:20:00,60.3,58.0,29.74,WNW,291,3.0,43.0,92,0.00,,,0.01,74,Wunderground v.1.15,2013-03-07 20:20:00,
2013-03-07 14:25:00,60.3,58.0,29.75,NNW,344,5.0,43.0,92,0.00,,,0.01,69,Wunderground v.1.15,2013-03-07 20:25:00,
2013-03-07 14:30:00,60.2,57.9,29.74,North,350,6.0,43.0,92,0.00,,,0.01,72,Wunderground v.1.15,2013-03-07 20:30:00,
2013-03-07 14:35:00,60.1,57.8,29.74,SW,226,6.0,43.0,92,0.00,,,0.01,79,Wunderground v.1.15,2013-03-07 20:35:00,
2013-03-07 14:40:00,60.3,58.0,29.74,SW,219,5.0,5.0,92,0.00,,,0.01,90,Wunderground v.1.15,2013-03-07 20:40:00,
2013-03-07 14:45:00,60.3,58.0,29.74,South,188,4.0,6.0,92,0.00,,,0.01,86,Wunderground v.1.15,2013-03-07 20:45:00,
2013-03-07 14:50:00,60.3,58.0,29.74,NE,36,7.0,43.0,92,0.00,,,0.02,53,Wunderground v.1.15,2013-03-07 20:50:00,
2013-03-07 14:55:00,60.2,58.2,29.74,NE,36,8.0,43.0,93,0.00,,,0.02,56,Wunderground v.1.15,2013-03-07 20:55:00,
2013-03-07 15:00:00,60.1,58.1,29.74,NE,44,6.0,43.0,93,0.00,,,0.02,65,Wunderground v.1.15,2013-03-07 21:00:00,
2013-03-07 15:05:00,60.1,58.1,29.73,North,349,7.0,43.0,93,0.00,,,0.02,54,Wunderground v.1.15,2013-03-07 21:05:00,
2013-03-07 15:10:00,60.2,58.2,29.74,SE,140,6.0,6.0,93,0.00,,,0.02,62,Wunderground v.1.15,2013-03-07 21:10:00,
2013-03-07 15:14:00,60.3,58.3,29.74,NNW,348,4.0,7.0,93,0.00,,,0.02,62,Wunderground v.1.15,2013-03-07 21:14:00,
2013-03-07 15:20:00,60.5,58.2,29.74,NE,52,4.0,43.0,92,0.00,,,0.02,67,Wunderground v.1.15,2013-03-07 21:20:00,
2013-03-07 15:25:00,60.6,58.3,29.74,South,188,5.0,43.0,92,0.00,,,0.02,65,Wunderground v.1.15,2013-03-07 21:25:00,
2013-03-07 15:30:00,60.7,58.4,29.75,NNW,344,3.0,43.0,92,0.00,,,0.02,83,Wunderground v.1.15,2013-03-07 21:30:00,
2013-03-07 15:35:00,60.7,58.1,29.74,NNE,26,3.0,43.0,91,0.00,,,0.02,142,Wunderground v.1.15,2013-03-07 21:35:00,
2013-03-07 15:40:00,60.9,58.3,29.74,NW,304,4.0,43.0,91,0.00,,,0.02,91,Wunderground v.1.15,2013-03-07 21:40:00,
2013-03-07 15:45:00,61.0,58.0,29.75,NNW,329,2.0,43.0,90,0.00,,,0.02,63,Wunderground v.1.15,2013-03-07 21:45:00,
2013-03-07 15:50:00,61.1,58.1,29.74,WSW,255,4.0,43.0,90,0.00,,,0.02,63,Wunderground v.1.15,2013-03-07 21:50:00,
2013-03-07 15:55:00,61.2,58.2,29.75,NE,40,5.0,43.0,90,0.00,,,0.02,84,Wunderground v.1.15,2013-03-07 21:55:00,
2013-03-07 16:00:00,61.3,58.3,29.75,SSW,200,4.0,4.0,90,0.00,,,0.02,65,Wunderground v.1.15,2013-03-07 22:00:00,
2013-03-07 16:05:00,61.4,58.1,29.75,South,182,3.0,9.0,89,0.00,,,0.02,69,Wunderground v.1.15,2013-03-07 22:05:00,
2013-03-07 16:10:00,61.5,58.2,29.75,NNW,339,4.0,4.0,89,0.00,,,0.02,46,Wunderground v.1.15,2013-03-07 22:10:00,
2013-03-07 16:15:00,61.5,58.2,29.75,NNW,327,3.0,43.0,89,0.00,,,0.02,47,Wunderground v.1.15,2013-03-07 22:15:00,
2013-03-07 16:20:00,61.4,58.1,29.75,WNW,296,2.0,2.0,89,0.00,,,0.02,58,Wunderground v.1.15,2013-03-07 22:20:00,
2013-03-07 16:25:00,61.3,58.0,29.75,NW,321,3.0,3.0,89,0.00,,,0.02,23,Wunderground v.1.15,2013-03-07 22:25:00,
2013-03-07 16:30:00,61.2,58.2,29.75,NW,314,2.0,43.0,90,0.00,,,0.02,26,Wunderground v.1.15,2013-03-07 22:30:00,
2013-03-07 16:35:00,61.0,57.7,29.75,NE,46,2.0,43.0,89,0.00,,,0.02,21,Wunderground v.1.15,2013-03-07 22:35:00,
2013-03-07 16:40:00,60.8,57.8,29.74,NNE,28,4.0,43.0,90,0.00,,,0.02,25,Wunderground v.1.15,2013-03-07 22:40:00,
2013-03-07 16:45:00,60.6,57.7,29.75,South,169,7.0,43.0,90,0.00,,,0.02,16,Wunderground v.1.15,2013-03-07 22:45:00,
2013-03-07 16:50:00,60.5,57.9,29.76,SE,130,7.0,43.0,91,0.00,,,0.02,18,Wunderground v.1.15,2013-03-07 22:50:00,
2013-03-07 16:55:00,60.4,57.8,29.76,SSE,154,7.0,43.0,91,0.00,,,0.02,11,Wunderground v.1.15,2013-03-07 22:55:00,
2013-03-07 17:00:00,60.2,57.9,29.76,ESE,104,7.0,7.0,92,0.00,,,0.02,11,Wunderground v.1.15,2013-03-07 23:00:00,
2013-03-07 17:05:00,60.0,57.7,29.76,East,99,6.0,43.0,92,0.00,,,0.02,9,Wunderground v.1.15,2013-03-07 23:05:00,
2013-03-07 17:10:00,59.9,57.6,29.76,ESE,103,6.0,6.0,92,0.00,,,0.02,9,Wunderground v.1.15,2013-03-07 23:10:00,
2013-03-07 17:15:00,59.8,57.8,29.76,NNE,30,6.0,43.0,93,0.00,,,0.02,9,Wunderground v.1.15,2013-03-07 23:15:00,
2013-03-07 17:20:00,59.8,57.8,29.76,ENE,72,6.0,6.0,93,0.00,,,0.02,7,Wunderground v.1.15,2013-03-07 23:20:00,
2013-03-07 17:25:00,59.8,57.8,29.76,SSW,206,3.0,9.0,93,0.00,,,0.02,7,Wunderground v.1.15,2013-03-07 23:25:00,
2013-03-07 17:30:00,59.9,57.6,29.76,SSE,161,2.0,2.0,92,0.00,,,0.02,5,Wunderground v.1.15,2013-03-07 23:30:00,
2013-03-07 17:35:00,59.9,57.6,29.76,SSE,163,1.0,43.0,92,0.00,,,0.02,0,Wunderground v.1.15,2013-03-07 23:35:00,
2013-03-07 17:40:00,59.9,57.6,29.75,NNW,344,2.0,43.0,92,0.00,,,0.02,0,Wunderground v.1.15,2013-03-07 23:40:00,
2013-03-07 17:45:00,59.9,57.9,29.76,NE,34,4.0,43.0,93,0.00,,,0.02,0,Wunderground v.1.15,2013-03-07 23:45:00,
2013-03-07 17:50:00,60.0,57.7,29.76,SW,219,3.0,43.0,92,0.00,,,0.02,0,Wunderground v.1.15,2013-03-07 23:50:00,
2013-03-07 17:55:00,60.1,57.8,29.75,SE,146,2.0,43.0,92,0.00,,,0.02,0,Wunderground v.1.15,2013-03-07 23:55:00,
2013-03-07 18:00:00,60.3,58.0,29.76,ESE,118,3.0,3.0,92,0.00,,,0.02,0,Wunderground v.1.15,2013-03-08 00:00:00,
2013-03-07 18:05:00,60.4,57.8,29.77,NW,324,3.0,43.0,91,0.00,,,0.02,0,Wunderground v.1.15,2013-03-08 00:05:00,
2013-03-07 18:10:00,60.5,57.9,29.77,South,179,2.0,43.0,91,0.00,,,0.02,0,Wunderground v.1.15,2013-03-08 00:10:00,
2013-03-07 18:15:00,60.5,57.9,29.77,NW,308,1.0,43.0,91,0.00,,,0.02,0,Wunderground v.1.15,2013-03-08 00:15:00,
2013-03-07 18:20:00,60.4,57.8,29.77,NW,304,1.0,1.0,91,0.00,,,0.03,0,Wunderground v.1.15,2013-03-08 00:20:00,
2013-03-07 18:25:00,60.3,58.0,29.77,NNW,346,1.0,8.0,92,0.00,,,0.03,0,Wunderground v.1.15,2013-03-08 00:25:00,
2013-03-07 18:30:00,60.2,57.9,29.77,NW,316,3.0,43.0,92,0.00,,,0.03,0,Wunderground v.1.15,2013-03-08 00:30:00,
2013-03-07 18:40:00,60.2,57.9,29.78,WSW,249,4.0,4.0,92,0.00,,,0.03,0,Wunderground v.1.15,2013-03-08 00:40:00,
2013-03-07 18:45:00,60.2,57.9,29.78,SW,216,2.0,43.0,92,0.00,,,0.03,0,Wunderground v.1.15,2013-03-08 00:45:00,
2013-03-07 18:50:00,60.3,57.7,29.78,ESE,123,1.0,1.0,91,0.00,,,0.03,0,Wunderground v.1.15,2013-03-08 00:50:00,
2013-03-07 18:55:00,60.3,57.7,29.78,South,191,1.0,3.0,91,0.00,,,0.03,0,Wunderground v.1.15,2013-03-08 00:55:00,
2013-03-07 19:05:00,60.6,57.7,29.78,North,355,5.0,43.0,90,0.00,,,0.03,0,Wunderground v.1.15,2013-03-08 01:05:00,
2013-03-07 19:10:00,60.6,57.7,29.79,SE,132,5.0,5.0,90,0.00,,,0.03,0,Wunderground v.1.15,2013-03-08 01:10:00,
2013-03-07 19:14:00,60.7,57.7,29.79,SSW,200,3.0,11.0,90,0.00,,,0.03,0,Wunderground v.1.15,2013-03-08 01:14:00,
2013-03-07 19:20:00,60.7,57.7,29.78,WSW,252,2.0,43.0,90,0.00,,,0.03,0,Wunderground v.1.15,2013-03-08 01:20:00,
2013-03-07 19:25:00,60.7,57.7,29.78,NNW,333,2.0,43.0,90,0.00,,,0.03,0,Wunderground v.1.15,2013-03-08 01:25:00,
2013-03-07 19:30:00,60.7,57.7,29.79,NNE,30,3.0,43.0,90,0.00,,,0.03,0,Wunderground v.1.15,2013-03-08 01:30:00,
2013-03-07 19:40:00,60.7,57.7,29.79,NW,306,2.0,43.0,90,0.00,,,0.03,0,Wunderground v.1.15,2013-03-08 01:40:00,
2013-03-07 19:45:00,60.7,57.7,29.79,West,274,2.0,43.0,90,0.00,,,0.03,0,Wunderground v.1.15,2013-03-08 01:45:00,
2013-03-07 19:50:00,60.7,57.7,29.78,WNW,302,3.0,43.0,90,0.00,,,0.03,0,Wunderground v.1.15,2013-03-08 01:50:00,
2013-03-07 19:55:00,60.7,57.7,29.79,North,5,4.0,43.0,90,0.00,,,0.03,0,Wunderground v.1.15,2013-03-08 01:55:00,
2013-03-07 20:00:00,60.6,57.7,29.79,North,360,6.0,6.0,90,0.00,,,0.03,0,Wunderground v.1.15,2013-03-08 02:00:00,
2013-03-07 20:05:00,60.6,57.7,29.80,North,360,6.0,43.0,90,0.00,,,0.03,0,Wunderground v.1.15,2013-03-08 02:05:00,
2013-03-07 20:10:00,60.6,57.7,29.80,NE,38,8.0,43.0,90,0.00,,,0.03,0,Wunderground v.1.15,2013-03-08 02:10:00,
2013-03-07 20:15:00,60.6,58.0,29.80,NW,316,10.0,43.0,91,0.00,,,0.03,0,Wunderground v.1.15,2013-03-08 02:15:00,
2013-03-07 20:20:00,60.4,57.8,29.80,ENE,57,9.0,9.0,91,0.00,,,0.03,0,Wunderground v.1.15,2013-03-08 02:20:00,
2013-03-07 20:25:00,60.3,57.7,29.80,NW,304,6.0,43.0,91,0.00,,,0.03,0,Wunderground v.1.15,2013-03-08 02:25:00,
2013-03-07 20:30:00,60.3,58.0,29.80,North,9,7.0,43.0,92,0.00,,,0.04,0,Wunderground v.1.15,2013-03-08 02:30:00,
2013-03-07 20:35:00,60.1,57.8,29.81,NE,37,9.0,43.0,92,0.00,,,0.04,0,Wunderground v.1.15,2013-03-08 02:35:00,
2013-03-07 20:40:00,60.0,57.7,29.81,NE,38,10.0,10.0,92,0.00,,,0.04,0,Wunderground v.1.15,2013-03-08 02:40:00,
2013-03-07 20:45:00,60.0,57.7,29.81,ENE,59,10.0,43.0,92,0.00,,,0.04,0,Wunderground v.1.15,2013-03-08 02:45:00,
2013-03-07 20:50:00,59.9,57.6,29.80,North,9,8.0,8.0,92,0.00,,,0.04,0,Wunderground v.1.15,2013-03-08 02:50:00,
2013-03-07 20:55:00,59.8,57.8,29.80,WNW,286,7.0,43.0,93,0.00,,,0.04,0,Wunderground v.1.15,2013-03-08 02:55:00,
2013-03-07 21:00:00,59.9,57.6,29.80,NNW,335,8.0,43.0,92,0.00,,,0.04,0,Wunderground v.1.15,2013-03-08 03:00:00,
2013-03-07 21:05:00,59.9,57.6,29.79,WSW,249,7.0,43.0,92,0.00,,,0.04,0,Wunderground v.1.15,2013-03-08 03:05:00,
2013-03-07 21:15:00,60.1,57.8,29.80,WNW,303,6.0,43.0,92,0.00,,,0.04,0,Wunderground v.1.15,2013-03-08 03:15:00,
2013-03-07 21:20:00,60.2,57.6,29.80,NNE,25,8.0,43.0,91,0.00,,,0.04,0,Wunderground v.1.15,2013-03-08 03:20:00,
2013-03-07 21:25:00,60.4,57.8,29.81,NNW,336,10.0,43.0,91,0.00,,,0.04,0,Wunderground v.1.15,2013-03-08 03:25:00,
2013-03-07 21:30:00,60.6,57.7,29.81,NNW,338,7.0,43.0,90,0.00,,,0.04,0,Wunderground v.1.15,2013-03-08 03:30:00,
2013-03-07 21:35:00,60.5,57.6,29.81,NNE,29,7.0,43.0,90,0.00,,,0.04,0,Wunderground v.1.15,2013-03-08 03:35:00,
2013-03-07 21:40:00,60.4,57.8,29.81,NNW,328,7.0,43.0,91,0.00,,,0.04,0,Wunderground v.1.15,2013-03-08 03:40:00,
2013-03-07 21:45:00,60.2,57.6,29.81,North,360,8.0,43.0,91,0.00,,,0.04,0,Wunderground v.1.15,2013-03-08 03:45:00,
2013-03-07 21:50:00,60.2,57.9,29.80,ENE,67,8.0,8.0,92,0.00,,,0.04,0,Wunderground v.1.15,2013-03-08 03:50:00,
2013-03-07 21:55:00,60.1,57.8,29.81,NW,306,6.0,43.0,92,0.00,,,0.04,0,Wunderground v.1.15,2013-03-08 03:55:00,
2013-03-07 22:00:00,60.2,57.9,29.80,NW,318,7.0,7.0,92,0.00,,,0.04,0,Wunderground v.1.15,2013-03-08 04:00:00,
2013-03-07 22:05:00,60.3,57.7,29.80,NNW,346,8.0,8.0,91,0.00,,,0.04,0,Wunderground v.1.15,2013-03-08 04:05:00,
2013-03-07 22:15:00,60.3,57.7,29.81,NNW,346,9.0,43.0,91,0.00,,,0.04,0,Wunderground v.1.15,2013-03-08 04:15:00,
2013-03-07 22:20:00,60.2,57.6,29.80,NNE,22,9.0,9.0,91,0.00,,,0.04,0,Wunderground v.1.15,2013-03-08 04:20:00,
2013-03-07 22:25:00,60.2,57.6,29.80,NNE,24,7.0,43.0,91,0.00,,,0.04,0,Wunderground v.1.15,2013-03-08 04:25:00,
2013-03-07 22:30:00,60.3,57.7,29.80,ESE,104,8.0,8.0,91,0.00,,,0.04,0,Wunderground v.1.15,2013-03-08 04:30:00,
2013-03-07 22:35:00,60.3,57.7,29.79,NNE,28,10.0,24.0,91,0.00,,,0.04,0,Wunderground v.1.15,2013-03-08 04:35:00,
2013-03-07 22:40:00,60.4,57.5,29.80,WNW,282,8.0,8.0,90,0.00,,,0.04,0,Wunderground v.1.15,2013-03-08 04:40:00,
2013-03-07 22:45:00,60.5,57.6,29.80,NNE,16,6.0,43.0,90,0.00,,,0.04,0,Wunderground v.1.15,2013-03-08 04:45:00,
2013-03-07 22:50:00,60.8,57.5,29.80,North,355,7.0,43.0,89,0.00,,,0.04,0,Wunderground v.1.15,2013-03-08 04:50:00,
2013-03-07 22:55:00,61.0,57.4,29.80,NW,325,8.0,43.0,88,0.00,,,0.04,0,Wunderground v.1.15,2013-03-08 04:55:00,
2013-03-07 23:00:00,61.2,57.6,29.80,WNW,296,6.0,43.0,88,0.00,,,0.04,0,Wunderground v.1.15,2013-03-08 05:00:00,
2013-03-07 23:05:00,61.2,57.3,29.80,NNE,14,6.0,43.0,87,0.00,,,0.04,0,Wunderground v.1.15,2013-03-08 05:05:00,
2013-03-07 23:10:00,61.2,57.3,29.80,SW,235,5.0,5.0,87,0.00,,,0.04,0,Wunderground v.1.15,2013-03-08 05:10:00,
2013-03-07 23:15:00,61.4,56.8,29.79,WNW,282,4.0,8.0,85,0.00,,,0.04,0,Wunderground v.1.15,2013-03-08 05:15:00,
2013-03-07 23:20:00,61.6,57.0,29.80,NNW,333,5.0,43.0,85,0.00,,,0.04,0,Wunderground v.1.15,2013-03-08 05:20:00,
2013-03-07 23:25:00,61.5,56.9,29.79,WNW,282,7.0,43.0,85,0.00,,,0.04,0,Wunderground v.1.15,2013-03-08 05:25:00,
2013-03-07 23:30:00,61.4,56.8,29.79,West,265,6.0,6.0,85,0.00,,,0.04,0,Wunderground v.1.15,2013-03-08 05:30:00,
2013-03-07 23:35:00,61.4,56.8,29.78,WNW,289,3.0,43.0,85,0.00,,,0.04,0,Wunderground v.1.15,2013-03-08 05:35:00,
2013-03-07 23:40:00,61.2,57.0,29.79,NNW,327,3.0,43.0,86,0.00,,,0.04,0,Wunderground v.1.15,2013-03-08 05:40:00,
2013-03-07 23:45:00,60.9,57.0,29.78,NW,323,5.0,43.0,87,0.00,,,0.04,0,Wunderground v.1.15,2013-03-08 05:45:00,
2013-03-07 23:50:00,60.6,57.0,29.78,NW,315,8.0,8.0,88,0.00,,,0.04,0,Wunderground v.1.15,2013-03-08 05:50:00,
2013-03-07 23:55:00,60.5,56.9,29.78,NNW,329,8.0,43.0,88,0.00,,,0.04,0,Wunderground v.1.15,2013-03-08 05:55:00,